M/V Alton St. Amant — WDE7604 — position and weather

sailwx.info

Track history (hours):
 
Tides and Currents Weather Stations Pressure Air Temp Water Temp Dewpoint Dewpoint Depression Visibility Wind Speed Wind Dir Waves Ship Positions

M/V Alton St. Amant

Owner: The Barge Investment Group Five, L.L.C., Harahan, LA. More information available from US FCC via Universal Licensing System and Coast Guard Vessel Documentation Center.

Last reported at 2015-Jan-05 22:32 UTC. Time now 2015-Jan-25 16:24 UTC.
Position N 29°43' W 095°16'.
Warning: this ship's position is 19 days out of date.

Length 25 m; draft 2.9 m.

Type: Towing. MMSI: 367395270.

Date/timePositionNaut miles runAvg speedWind from/ knotsBaromVisibWave heightAir tempDewpointWater temp
2015-Jan-05 22:32N 29°43' W 095°16'0 0.0
2015-Jan-05 20:18N 29°43' W 095°16'0 0.0
2015-Jan-05 19:14N 29°43' W 095°16'0 0.0
2015-Jan-05 15:33N 29°43' W 095°16'0 0.3
2015-Jan-05 14:33N 29°44' W 095°16'0 0.2
2015-Jan-05 13:33N 29°43' W 095°16'9 2.3
2015-Jan-05 09:28N 29°45' W 095°06'2 2.6
2015-Jan-05 08:33N 29°47' W 095°05'4 3.5
2015-Jan-05 07:32N 29°44' W 095°03'7 6.8
2015-Jan-05 06:33N 29°39' W 094°58'8 8.4
2015-Jan-05 05:34N 29°32' W 094°53'  
Track history (hours):
 
Tides and Currents Weather Stations Pressure Air Temp Water Temp Dewpoint Dewpoint Depression Visibility Wind Speed Wind Dir Waves Ship Positions

M/V Alton St. Amant

Owner: The Barge Investment Group Five, L.L.C., Harahan, LA. More information available from US FCC via Universal Licensing System and Coast Guard Vessel Documentation Center.

Last reported at 2015-Jan-05 22:32 UTC. Time now 2015-Jan-25 16:24 UTC.
Position N 29°43' W 095°16'.
Warning: this ship's position is 19 days out of date.

Length 25 m; draft 2.9 m.

Type: Towing. MMSI: 367395270.

Date/timePositionNaut miles runAvg speedWind from/ knotsBaromVisibWave heightAir tempDewpointWater temp
2015-Jan-05 22:32N 29°43' W 095°16'0 0.0
2015-Jan-05 20:18N 29°43' W 095°16'0 0.0
2015-Jan-05 19:14N 29°43' W 095°16'0 0.0
2015-Jan-05 15:33N 29°43' W 095°16'0 0.3
2015-Jan-05 14:33N 29°44' W 095°16'0 0.2
2015-Jan-05 13:33N 29°43' W 095°16'9 2.3
2015-Jan-05 09:28N 29°45' W 095°06'2 2.6
2015-Jan-05 08:33N 29°47' W 095°05'4 3.5
2015-Jan-05 07:32N 29°44' W 095°03'7 6.8
2015-Jan-05 06:33N 29°39' W 094°58'8 8.4
2015-Jan-05 05:34N 29°32' W 094°53'  

Dump ship's entire track history